createdAt,value
2023-05-12T00:02:06.638Z,2.30
2023-05-12T00:07:10.531Z,2.70
2023-05-12T00:12:15.456Z,2.90
2023-05-12T00:17:19.180Z,2.53
2023-05-12T00:22:22.748Z,2.88
2023-05-12T00:27:27.403Z,2.40
2023-05-12T00:32:31.647Z,2.60
2023-05-12T00:37:35.341Z,2.33
2023-05-12T00:42:40.551Z,4.28
2023-05-12T00:47:44.230Z,2.80
2023-05-12T00:52:48.426Z,2.28
2023-05-12T00:57:53.689Z,2.50
2023-05-12T01:08:05.248Z,2.92
2023-05-12T01:13:10.376Z,2.72
2023-05-12T01:18:16.423Z,2.53
2023-05-12T01:23:21.662Z,3.20
2023-05-12T01:28:26.314Z,2.25
2023-05-12T01:38:34.539Z,2.92
2023-05-12T01:43:39.775Z,3.10
2023-05-12T01:53:47.917Z,2.75
2023-05-12T01:58:52.814Z,2.47
2023-05-12T02:03:57.153Z,2.70
2023-05-12T02:09:02.847Z,3.10
2023-05-12T02:14:08.134Z,2.83
2023-05-12T02:19:11.729Z,2.80
2023-05-12T02:24:16.520Z,3.33
2023-05-12T02:29:21.703Z,3.03
2023-05-12T02:34:25.560Z,3.10
2023-05-12T02:39:29.348Z,3.08
2023-05-12T02:44:34.923Z,3.03
2023-05-12T02:49:38.526Z,3.13
2023-05-12T02:54:42.000Z,3.17
2023-05-12T02:59:46.627Z,2.78
2023-05-12T03:04:49.909Z,4.80
2023-05-12T03:09:53.208Z,2.97
2023-05-12T03:14:59.335Z,3.00
2023-05-12T03:20:03.160Z,3.03
2023-05-12T03:25:08.355Z,3.40
2023-05-12T03:30:15.106Z,3.03
2023-05-12T03:35:18.860Z,3.25
2023-05-12T03:40:23.019Z,3.58
2023-05-12T03:45:28.477Z,3.45
2023-05-12T03:50:32.088Z,2.97
2023-05-12T03:55:36.632Z,3.60
2023-05-12T04:00:42.142Z,3.60
2023-05-12T04:05:45.374Z,3.70
2023-05-12T04:10:48.546Z,3.85
2023-05-12T04:15:55.970Z,3.92
2023-05-12T04:20:59.922Z,4.55
2023-05-12T04:26:05.671Z,3.95
2023-05-12T04:31:10.313Z,4.20
2023-05-12T04:36:14.854Z,4.43
2023-05-12T04:41:18.302Z,4.50
2023-05-12T04:46:23.204Z,4.22
2023-05-12T04:51:26.669Z,4.70
2023-05-12T04:56:30.246Z,4.50
2023-05-12T05:01:35.172Z,4.97
2023-05-12T05:11:43.556Z,4.22
2023-05-12T05:16:48.647Z,4.80
2023-05-12T05:21:52.276Z,4.60
2023-05-12T05:26:55.963Z,4.72
2023-05-12T05:32:00.970Z,4.57
2023-05-12T05:37:04.834Z,6.10
2023-05-12T05:42:08.887Z,4.93
2023-05-12T05:47:13.721Z,4.90
2023-05-12T05:52:17.698Z,5.18
2023-05-12T05:57:21.322Z,5.03
2023-05-12T06:02:27.038Z,4.50
2023-05-12T06:07:30.504Z,5.03
2023-05-12T06:12:34.262Z,5.20
2023-05-12T06:17:39.618Z,5.22
2023-05-12T06:22:44.345Z,5.35
2023-05-12T06:27:47.565Z,5.03
2023-05-12T06:32:52.816Z,5.00
2023-05-12T06:43:00.096Z,5.05
2023-05-12T06:48:06.437Z,5.15
2023-05-12T06:53:10.221Z,5.53
2023-05-12T06:58:13.909Z,5.60
2023-05-12T07:03:18.942Z,4.50
2023-05-12T07:08:22.489Z,5.00
2023-05-12T07:13:26.114Z,4.55
2023-05-12T07:18:32.100Z,4.45
2023-05-12T07:23:36.218Z,6.90
2023-05-12T07:28:39.849Z,4.28
2023-05-12T07:33:44.921Z,3.38
2023-05-12T07:38:48.739Z,3.53
2023-05-12T07:43:52.024Z,3.85
2023-05-12T07:48:57.744Z,4.32
2023-05-12T07:54:02.101Z,3.70
2023-05-12T07:59:06.698Z,3.70
2023-05-12T08:04:12.069Z,3.58
2023-05-12T08:09:15.402Z,3.92
2023-05-12T08:14:18.620Z,2.95
2023-05-12T08:19:23.537Z,2.92
2023-05-12T08:24:27.792Z,3.22
2023-05-12T08:29:31.415Z,2.67
2023-05-12T08:34:36.594Z,2.83
2023-05-12T08:39:40.442Z,3.17
2023-05-12T08:44:43.988Z,3.30
2023-05-12T08:49:56.069Z,6.68
2023-05-12T08:55:01.072Z,5.85
2023-05-12T09:00:09.166Z,3.28
2023-05-12T09:05:17.285Z,3.00
2023-05-12T09:10:33.509Z,3.58
2023-05-12T09:15:47.375Z,2.63
2023-05-12T09:20:52.512Z,3.17
2023-05-12T09:26:01.705Z,2.90
2023-05-12T09:31:16.970Z,3.65
2023-05-12T09:41:26.214Z,3.08
2023-05-12T09:46:30.018Z,3.47
2023-05-12T09:51:35.519Z,3.50
2023-05-12T09:56:39.969Z,3.58
2023-05-12T10:01:44.068Z,3.55
2023-05-12T10:06:49.848Z,3.37
2023-05-12T10:11:54.106Z,3.10
2023-05-12T10:16:58.713Z,3.10
2023-05-12T10:22:04.127Z,4.63
2023-05-12T10:27:08.712Z,3.53
2023-05-12T10:32:12.894Z,3.15
2023-05-12T10:37:18.194Z,3.23
2023-05-12T10:42:25.814Z,3.90
2023-05-12T10:47:38.824Z,2.85
2023-05-12T10:52:55.160Z,4.28
2023-05-12T10:58:06.689Z,4.07
2023-05-12T11:03:15.861Z,3.53
2023-05-12T11:08:23.125Z,3.42
2023-05-12T11:13:27.248Z,2.88
2023-05-12T11:18:30.970Z,2.85
2023-05-12T11:23:36.037Z,3.40
2023-05-12T11:28:42.410Z,3.08
2023-05-12T11:33:46.200Z,3.70
2023-05-12T11:38:54.150Z,2.88
2023-05-12T11:43:57.806Z,2.92
2023-05-12T11:49:02.145Z,2.45
2023-05-12T11:54:09.432Z,2.70
2023-05-12T11:59:13.106Z,2.63
2023-05-12T12:04:16.881Z,2.38
2023-05-12T12:09:32.460Z,2.60
2023-05-12T12:14:38.394Z,2.88
2023-05-12T12:19:42.042Z,2.45
2023-05-12T12:24:47.153Z,2.92
2023-05-12T12:29:51.133Z,2.50
2023-05-12T12:34:54.557Z,2.73
2023-05-12T12:39:59.482Z,2.47
2023-05-12T12:45:03.583Z,2.67
2023-05-12T12:50:10.347Z,2.47
2023-05-12T12:55:15.047Z,2.05
2023-05-12T13:00:19.799Z,2.33
2023-05-12T13:05:23.497Z,2.47
2023-05-12T13:10:29.047Z,2.50
2023-05-12T13:15:33.590Z,2.42
2023-05-12T13:20:37.493Z,3.38
2023-05-12T13:25:44.563Z,3.17
2023-05-12T13:30:48.252Z,2.40
2023-05-12T13:35:51.938Z,2.55
2023-05-12T13:40:57.075Z,3.05
2023-05-12T13:46:00.758Z,2.90
2023-05-12T13:51:04.621Z,2.95
2023-05-12T13:56:10.545Z,2.53
2023-05-12T14:01:14.478Z,2.60
2023-05-12T14:06:18.091Z,2.70
2023-05-12T14:11:22.988Z,2.50
2023-05-12T14:16:26.642Z,2.38
2023-05-12T14:21:30.362Z,2.90
2023-05-12T14:26:35.365Z,3.03
2023-05-12T14:31:39.018Z,2.58
2023-05-12T14:36:42.550Z,2.60
2023-05-12T14:41:47.597Z,2.72
2023-05-12T14:46:50.850Z,2.80
2023-05-12T14:51:54.092Z,3.28
2023-05-12T14:56:58.672Z,3.65
2023-05-12T15:02:01.931Z,3.00
2023-05-12T15:07:06.106Z,3.10
2023-05-12T15:12:11.829Z,3.03
2023-05-12T15:17:15.361Z,2.50
2023-05-12T15:22:19.186Z,2.57
2023-05-12T15:27:24.345Z,2.87
2023-05-12T15:32:27.682Z,3.15
2023-05-12T15:37:30.947Z,3.70
2023-05-12T15:42:35.889Z,3.13
2023-05-12T15:47:39.667Z,2.90
2023-05-12T15:52:43.301Z,3.30
2023-05-12T15:57:48.465Z,3.72
2023-05-12T16:02:52.108Z,4.43
2023-05-12T16:07:55.757Z,3.22
2023-05-12T16:13:00.799Z,2.83
2023-05-12T16:18:05.945Z,3.22
2023-05-12T16:23:11.121Z,2.50
2023-05-12T16:28:16.045Z,3.13
2023-05-12T16:33:19.815Z,2.80
2023-05-12T16:38:23.145Z,3.15
2023-05-12T16:43:27.758Z,3.33
2023-05-12T16:48:34.745Z,3.08
2023-05-12T16:53:38.805Z,3.40
2023-05-12T16:58:44.370Z,4.37
2023-05-12T17:03:48.165Z,2.95
2023-05-12T17:08:52.048Z,3.42
2023-05-12T17:13:57.112Z,2.87
2023-05-12T17:24:08.181Z,3.72
2023-05-12T17:29:12.809Z,3.22
2023-05-12T17:34:16.613Z,4.30
2023-05-12T17:39:20.531Z,3.80
2023-05-12T17:44:25.489Z,4.22
2023-05-12T17:49:29.246Z,5.43
2023-05-12T17:54:33.027Z,3.80
2023-05-12T17:59:38.059Z,4.35
2023-05-12T18:09:45.004Z,2.85
2023-05-12T18:14:50.468Z,3.58
2023-05-12T18:19:53.691Z,3.25
2023-05-12T18:24:57.038Z,4.13
2023-05-12T18:30:02.084Z,3.03
2023-05-12T18:35:06.165Z,3.70
2023-05-12T18:40:10.373Z,3.28
2023-05-12T18:45:15.722Z,3.83
2023-05-12T18:50:19.337Z,2.75
2023-05-12T18:55:23.086Z,3.83
2023-05-12T19:00:31.894Z,4.47
2023-05-12T19:05:35.324Z,3.20
2023-05-12T19:10:39.988Z,4.63
2023-05-12T19:15:45.298Z,3.75
2023-05-12T19:20:49.390Z,3.38
2023-05-12T19:25:53.112Z,3.08
2023-05-12T19:30:58.299Z,2.85
2023-05-12T19:36:02.131Z,2.58
2023-05-12T19:41:05.915Z,2.80
2023-05-12T19:46:10.959Z,2.83
2023-05-12T19:51:14.679Z,2.95
2023-05-12T19:56:19.274Z,2.50
2023-05-12T20:01:23.862Z,2.47
2023-05-12T20:06:27.137Z,2.57
2023-05-12T20:11:30.698Z,2.70
2023-05-12T20:16:35.469Z,2.38
2023-05-12T20:21:39.050Z,2.30
2023-05-12T20:26:42.278Z,2.70
2023-05-12T20:31:47.695Z,2.33
2023-05-12T20:41:54.297Z,2.67
2023-05-12T20:46:58.909Z,2.72
2023-05-12T20:52:02.169Z,2.63
2023-05-12T20:57:05.689Z,2.60
2023-05-12T21:02:10.872Z,3.13
2023-05-12T21:07:14.923Z,3.72
2023-05-12T21:12:18.597Z,3.95
2023-05-12T21:17:23.580Z,3.25
2023-05-12T21:22:27.707Z,2.92
2023-05-12T21:27:31.708Z,3.25
2023-05-12T21:32:36.844Z,3.53
2023-05-12T21:37:40.288Z,3.40
2023-05-12T21:42:44.132Z,3.42
2023-05-12T21:47:51.214Z,4.63
2023-05-12T21:52:54.993Z,4.00
2023-05-12T21:57:58.739Z,3.30
2023-05-12T22:03:03.928Z,3.47
2023-05-12T22:08:07.435Z,3.75
2023-05-12T22:13:10.760Z,2.78
2023-05-12T22:18:15.540Z,3.55
2023-05-12T22:23:18.803Z,3.13
2023-05-12T22:28:22.082Z,3.35
2023-05-12T22:33:27.106Z,6.18
2023-05-12T22:38:30.347Z,5.53
2023-05-12T22:43:33.600Z,6.60
2023-05-12T22:48:39.361Z,6.97
2023-05-12T22:53:43.360Z,6.40
2023-05-12T22:58:46.586Z,6.47
2023-05-12T23:03:51.653Z,6.65
2023-05-12T23:08:55.300Z,6.77
2023-05-12T23:13:59.159Z,6.70
2023-05-12T23:19:04.417Z,7.15
2023-05-12T23:24:08.898Z,6.80
2023-05-12T23:29:12.651Z,6.43
2023-05-12T23:34:17.704Z,6.75
2023-05-12T23:39:21.291Z,7.43
2023-05-12T23:44:24.909Z,7.82
2023-05-12T23:49:29.565Z,8.75
2023-05-12T23:54:32.752Z,8.43
2023-05-12T23:59:36.156Z,9.10
